sensor_id;sensor_type;location;lat;lon;timestamp;P1;durP1;ratioP1;P2;durP2;ratioP2
9938;SDS011;5008;50.656;7.188;2023-08-21T04:02:56;14.73;;;13.48;;
9938;SDS011;5008;50.656;7.188;2023-08-21T04:05:23;14.77;;;13.40;;
9938;SDS011;5008;50.656;7.188;2023-08-21T04:07:50;14.85;;;13.48;;
9938;SDS011;5008;50.656;7.188;2023-08-21T04:13:31;13.73;;;12.60;;
9938;SDS011;5008;50.656;7.188;2023-08-21T04:15:59;14.57;;;13.27;;
9938;SDS011;5008;50.656;7.188;2023-08-21T04:18:27;14.45;;;13.25;;
9938;SDS011;5008;50.656;7.188;2023-08-21T04:20:54;13.57;;;12.57;;
9938;SDS011;5008;50.656;7.188;2023-08-21T04:23:23;14.52;;;13.23;;
9938;SDS011;5008;50.656;7.188;2023-08-21T04:25:50;14.63;;;13.43;;
9938;SDS011;5008;50.656;7.188;2023-08-21T04:28:17;14.75;;;13.48;;
9938;SDS011;5008;50.656;7.188;2023-08-21T04:30:45;13.65;;;12.50;;
9938;SDS011;5008;50.656;7.188;2023-08-21T04:33:14;14.32;;;13.13;;
9938;SDS011;5008;50.656;7.188;2023-08-21T04:35:43;13.77;;;12.43;;
9938;SDS011;5008;50.656;7.188;2023-08-21T04:44:22;14.20;;;13.10;;
9938;SDS011;5008;50.656;7.188;2023-08-21T04:46:49;14.23;;;12.93;;
9938;SDS011;5008;50.656;7.188;2023-08-21T04:49:16;13.82;;;12.70;;
9938;SDS011;5008;50.656;7.188;2023-08-21T04:51:44;14.13;;;12.93;;
9938;SDS011;5008;50.656;7.188;2023-08-21T04:54:11;14.30;;;13.10;;
9938;SDS011;5008;50.656;7.188;2023-08-21T04:56:40;13.85;;;12.75;;
9938;SDS011;5008;50.656;7.188;2023-08-21T04:59:07;13.65;;;12.55;;
9938;SDS011;5008;50.656;7.188;2023-08-21T05:01:34;14.25;;;12.90;;
9938;SDS011;5008;50.656;7.188;2023-08-21T05:04:01;14.10;;;13.00;;
9938;SDS011;5008;50.656;7.188;2023-08-21T05:06:28;14.68;;;13.38;;
9938;SDS011;5008;50.656;7.188;2023-08-21T05:09:04;14.00;;;12.70;;
9938;SDS011;5008;50.656;7.188;2023-08-21T05:11:30;13.75;;;12.75;;
9938;SDS011;5008;50.656;7.188;2023-08-21T05:13:57;13.73;;;12.55;;
9938;SDS011;5008;50.656;7.188;2023-08-21T05:16:24;13.45;;;12.30;;
9938;SDS011;5008;50.656;7.188;2023-08-21T05:18:51;14.32;;;13.07;;
9938;SDS011;5008;50.656;7.188;2023-08-21T05:21:18;13.07;;;12.07;;
9938;SDS011;5008;50.656;7.188;2023-08-21T05:23:45;13.90;;;12.80;;
9938;SDS011;5008;50.656;7.188;2023-08-21T05:26:14;14.63;;;13.43;;
9938;SDS011;5008;50.656;7.188;2023-08-21T05:28:41;13.45;;;12.35;;
9938;SDS011;5008;50.656;7.188;2023-08-21T05:31:08;18.88;;;15.35;;
9938;SDS011;5008;50.656;7.188;2023-08-21T05:33:35;15.15;;;13.85;;
9938;SDS011;5008;50.656;7.188;2023-08-21T05:36:02;13.85;;;12.75;;
9938;SDS011;5008;50.656;7.188;2023-08-21T05:38:30;14.05;;;12.85;;
9938;SDS011;5008;50.656;7.188;2023-08-21T05:40:57;12.88;;;11.95;;
9938;SDS011;5008;50.656;7.188;2023-08-21T05:43:27;14.93;;;13.73;;
9938;SDS011;5008;50.656;7.188;2023-08-21T05:45:55;15.45;;;14.18;;
9938;SDS011;5008;50.656;7.188;2023-08-21T05:48:22;16.00;;;14.70;;
9938;SDS011;5008;50.656;7.188;2023-08-21T05:50:50;16.23;;;14.93;;
9938;SDS011;5008;50.656;7.188;2023-08-21T05:53:17;16.48;;;15.13;;
9938;SDS011;5008;50.656;7.188;2023-08-21T05:55:46;16.13;;;14.82;;
9938;SDS011;5008;50.656;7.188;2023-08-21T05:58:14;15.95;;;14.65;;
9938;SDS011;5008;50.656;7.188;2023-08-21T06:00:42;15.63;;;14.40;;
9938;SDS011;5008;50.656;7.188;2023-08-21T06:03:10;17.38;;;15.77;;
9938;SDS011;5008;50.656;7.188;2023-08-21T06:05:37;15.93;;;14.63;;
9938;SDS011;5008;50.656;7.188;2023-08-21T06:08:06;14.90;;;13.70;;
9938;SDS011;5008;50.656;7.188;2023-08-21T06:10:33;13.80;;;12.70;;
9938;SDS011;5008;50.656;7.188;2023-08-21T06:13:00;13.70;;;12.50;;
9938;SDS011;5008;50.656;7.188;2023-08-21T06:15:28;13.00;;;11.80;;
9938;SDS011;5008;50.656;7.188;2023-08-21T06:17:58;13.80;;;12.57;;
9938;SDS011;5008;50.656;7.188;2023-08-21T06:20:29;13.05;;;12.05;;
9938;SDS011;5008;50.656;7.188;2023-08-21T06:22:56;16.55;;;15.02;;
9938;SDS011;5008;50.656;7.188;2023-08-21T06:25:33;14.85;;;13.63;;
9938;SDS011;5008;50.656;7.188;2023-08-21T06:28:00;16.40;;;14.85;;
9938;SDS011;5008;50.656;7.188;2023-08-21T06:33:37;16.42;;;15.10;;
9938;SDS011;5008;50.656;7.188;2023-08-21T06:36:04;15.80;;;14.55;;
9938;SDS011;5008;50.656;7.188;2023-08-21T06:38:31;15.45;;;14.15;;
9938;SDS011;5008;50.656;7.188;2023-08-21T06:40:58;15.48;;;14.15;;
9938;SDS011;5008;50.656;7.188;2023-08-21T06:43:25;16.02;;;14.52;;
9938;SDS011;5008;50.656;7.188;2023-08-21T06:45:53;16.27;;;14.90;;
9938;SDS011;5008;50.656;7.188;2023-08-21T06:48:20;15.93;;;14.60;;
9938;SDS011;5008;50.656;7.188;2023-08-21T06:50:48;14.73;;;13.50;;
9938;SDS011;5008;50.656;7.188;2023-08-21T06:53:15;16.00;;;14.70;;
9938;SDS011;5008;50.656;7.188;2023-08-21T06:55:44;13.77;;;12.55;;
9938;SDS011;5008;50.656;7.188;2023-08-21T06:58:11;12.88;;;11.93;;
9938;SDS011;5008;50.656;7.188;2023-08-21T07:00:38;14.98;;;13.77;;
9938;SDS011;5008;50.656;7.188;2023-08-21T07:03:05;16.33;;;14.95;;
9938;SDS011;5008;50.656;7.188;2023-08-21T07:05:32;14.45;;;13.15;;
9938;SDS011;5008;50.656;7.188;2023-08-21T07:08:00;14.80;;;13.60;;
9938;SDS011;5008;50.656;7.188;2023-08-21T07:10:28;14.68;;;13.52;;
9938;SDS011;5008;50.656;7.188;2023-08-21T07:12:55;13.30;;;12.25;;
9938;SDS011;5008;50.656;7.188;2023-08-21T07:15:22;13.38;;;12.18;;
9938;SDS011;5008;50.656;7.188;2023-08-21T07:17:49;14.07;;;12.88;;
9938;SDS011;5008;50.656;7.188;2023-08-21T07:20:16;14.75;;;13.55;;
9938;SDS011;5008;50.656;7.188;2023-08-21T07:22:43;12.30;;;11.32;;
9938;SDS011;5008;50.656;7.188;2023-08-21T07:25:12;11.40;;;10.60;;
9938;SDS011;5008;50.656;7.188;2023-08-21T07:27:39;14.98;;;13.75;;
9938;SDS011;5008;50.656;7.188;2023-08-21T07:30:06;12.18;;;11.18;;
9938;SDS011;5008;50.656;7.188;2023-08-21T07:32:49;13.68;;;12.45;;
9938;SDS011;5008;50.656;7.188;2023-08-21T07:35:16;13.57;;;12.43;;
9938;SDS011;5008;50.656;7.188;2023-08-21T07:37:43;13.25;;;12.10;;
9938;SDS011;5008;50.656;7.188;2023-08-21T07:40:12;14.18;;;12.90;;
9938;SDS011;5008;50.656;7.188;2023-08-21T07:42:40;13.70;;;12.48;;
9938;SDS011;5008;50.656;7.188;2023-08-21T07:45:07;13.55;;;12.45;;
9938;SDS011;5008;50.656;7.188;2023-08-21T07:47:35;11.98;;;11.05;;
9938;SDS011;5008;50.656;7.188;2023-08-21T07:50:02;11.25;;;10.20;;
9938;SDS011;5008;50.656;7.188;2023-08-21T07:52:29;11.27;;;10.38;;
9938;SDS011;5008;50.656;7.188;2023-08-21T07:54:56;12.65;;;11.50;;
9938;SDS011;5008;50.656;7.188;2023-08-21T07:57:25;12.98;;;11.85;;
9938;SDS011;5008;50.656;7.188;2023-08-21T07:59:56;14.65;;;12.13;;
9938;SDS011;5008;50.656;7.188;2023-08-21T08:02:23;12.52;;;11.30;;
9938;SDS011;5008;50.656;7.188;2023-08-21T08:04:50;12.00;;;10.90;;
9938;SDS011;5008;50.656;7.188;2023-08-21T08:07:17;11.07;;;10.15;;
9938;SDS011;5008;50.656;7.188;2023-08-21T08:09:44;11.00;;;9.98;;
9938;SDS011;5008;50.656;7.188;2023-08-21T08:12:12;11.30;;;10.23;;
9938;SDS011;5008;50.656;7.188;2023-08-21T08:14:40;11.43;;;10.40;;
9938;SDS011;5008;50.656;7.188;2023-08-21T08:17:07;11.65;;;10.55;;
9938;SDS011;5008;50.656;7.188;2023-08-21T08:19:34;10.93;;;9.93;;
9938;SDS011;5008;50.656;7.188;2023-08-21T08:22:04;10.63;;;9.73;;
9938;SDS011;5008;50.656;7.188;2023-08-21T08:24:36;11.43;;;10.43;;
9938;SDS011;5008;50.656;7.188;2023-08-21T08:27:03;11.75;;;10.65;;
9938;SDS011;5008;50.656;7.188;2023-08-21T08:29:31;12.52;;;11.45;;
9938;SDS011;5008;50.656;7.188;2023-08-21T08:32:00;10.75;;;9.85;;
9938;SDS011;5008;50.656;7.188;2023-08-21T08:34:26;11.05;;;10.15;;
9938;SDS011;5008;50.656;7.188;2023-08-21T08:36:54;11.35;;;10.30;;
9938;SDS011;5008;50.656;7.188;2023-08-21T08:39:20;11.05;;;10.15;;
9938;SDS011;5008;50.656;7.188;2023-08-21T08:41:54;10.38;;;9.57;;
9938;SDS011;5008;50.656;7.188;2023-08-21T08:44:24;10.25;;;9.35;;
9938;SDS011;5008;50.656;7.188;2023-08-21T08:46:52;9.65;;;8.85;;
9938;SDS011;5008;50.656;7.188;2023-08-21T08:49:20;10.45;;;9.60;;
9938;SDS011;5008;50.656;7.188;2023-08-21T08:51:49;10.20;;;9.30;;
9938;SDS011;5008;50.656;7.188;2023-08-21T08:54:17;10.77;;;9.88;;
9938;SDS011;5008;50.656;7.188;2023-08-21T08:56:45;10.60;;;9.70;;
9938;SDS011;5008;50.656;7.188;2023-08-21T08:59:12;11.10;;;10.07;;
9938;SDS011;5008;50.656;7.188;2023-08-21T09:01:40;10.88;;;9.98;;
9938;SDS011;5008;50.656;7.188;2023-08-21T09:04:08;11.10;;;10.18;;
9938;SDS011;5008;50.656;7.188;2023-08-21T09:06:37;10.10;;;9.35;;
9938;SDS011;5008;50.656;7.188;2023-08-21T09:09:05;9.10;;;8.35;;
9938;SDS011;5008;50.656;7.188;2023-08-21T09:11:35;8.95;;;8.25;;
9938;SDS011;5008;50.656;7.188;2023-08-21T09:14:08;9.27;;;8.57;;
9938;SDS011;5008;50.656;7.188;2023-08-21T09:16:56;9.40;;;8.65;;
9938;SDS011;5008;50.656;7.188;2023-08-21T09:19:26;9.75;;;8.85;;
9938;SDS011;5008;50.656;7.188;2023-08-21T09:21:55;9.32;;;8.55;;
9938;SDS011;5008;50.656;7.188;2023-08-21T09:24:23;8.20;;;7.60;;
9938;SDS011;5008;50.656;7.188;2023-08-21T09:26:50;9.85;;;8.95;;
9938;SDS011;5008;50.656;7.188;2023-08-21T09:29:18;9.60;;;8.82;;
9938;SDS011;5008;50.656;7.188;2023-08-21T09:31:45;9.93;;;9.02;;
9938;SDS011;5008;50.656;7.188;2023-08-21T09:34:20;9.93;;;9.13;;
9938;SDS011;5008;50.656;7.188;2023-08-21T09:36:54;10.13;;;9.32;;
9938;SDS011;5008;50.656;7.188;2023-08-21T09:39:21;9.30;;;8.60;;
9938;SDS011;5008;50.656;7.188;2023-08-21T09:41:54;8.85;;;8.05;;
9938;SDS011;5008;50.656;7.188;2023-08-21T09:44:21;8.77;;;7.90;;
9938;SDS011;5008;50.656;7.188;2023-08-21T09:46:48;9.15;;;8.38;;
9938;SDS011;5008;50.656;7.188;2023-08-21T09:49:15;9.00;;;8.10;;
9938;SDS011;5008;50.656;7.188;2023-08-21T09:51:45;9.10;;;8.40;;
9938;SDS011;5008;50.656;7.188;2023-08-21T09:54:19;9.00;;;8.30;;
9938;SDS011;5008;50.656;7.188;2023-08-21T09:56:47;8.35;;;7.75;;
9938;SDS011;5008;50.656;7.188;2023-08-21T09:59:18;8.55;;;7.85;;
9938;SDS011;5008;50.656;7.188;2023-08-21T10:01:46;8.80;;;8.00;;
9938;SDS011;5008;50.656;7.188;2023-08-21T10:04:16;8.15;;;7.55;;
9938;SDS011;5008;50.656;7.188;2023-08-21T10:06:44;7.25;;;6.65;;
9938;SDS011;5008;50.656;7.188;2023-08-21T10:09:19;7.80;;;7.00;;
9938;SDS011;5008;50.656;7.188;2023-08-21T10:11:47;7.82;;;7.13;;
9938;SDS011;5008;50.656;7.188;2023-08-21T10:14:14;8.02;;;7.32;;
9938;SDS011;5008;50.656;7.188;2023-08-21T10:16:42;7.60;;;6.90;;
9938;SDS011;5008;50.656;7.188;2023-08-21T10:19:12;8.18;;;7.38;;
9938;SDS011;5008;50.656;7.188;2023-08-21T10:21:41;8.38;;;7.57;;
9938;SDS011;5008;50.656;7.188;2023-08-21T10:24:07;8.05;;;6.65;;
9938;SDS011;5008;50.656;7.188;2023-08-21T10:26:38;7.32;;;6.63;;
9938;SDS011;5008;50.656;7.188;2023-08-21T10:29:05;6.97;;;6.40;;
9938;SDS011;5008;50.656;7.188;2023-08-21T10:31:33;7.25;;;6.63;;
9938;SDS011;5008;50.656;7.188;2023-08-21T10:34:02;7.00;;;6.50;;
9938;SDS011;5008;50.656;7.188;2023-08-21T10:36:40;7.32;;;6.72;;
9938;SDS011;5008;50.656;7.188;2023-08-21T10:39:27;7.15;;;6.32;;
9938;SDS011;5008;50.656;7.188;2023-08-21T10:41:58;7.35;;;6.75;;
9938;SDS011;5008;50.656;7.188;2023-08-21T10:44:34;8.82;;;6.95;;
9938;SDS011;5008;50.656;7.188;2023-08-21T10:47:16;7.38;;;6.75;;
9938;SDS011;5008;50.656;7.188;2023-08-21T10:49:45;7.07;;;6.38;;
9938;SDS011;5008;50.656;7.188;2023-08-21T10:52:12;7.10;;;6.40;;
9938;SDS011;5008;50.656;7.188;2023-08-21T10:54:44;7.47;;;6.78;;
9938;SDS011;5008;50.656;7.188;2023-08-21T10:57:18;8.85;;;6.57;;
9938;SDS011;5008;50.656;7.188;2023-08-21T10:59:49;6.78;;;6.28;;
9938;SDS011;5008;50.656;7.188;2023-08-21T11:02:20;6.60;;;6.10;;
9938;SDS011;5008;50.656;7.188;2023-08-21T11:04:48;7.30;;;6.60;;
9938;SDS011;5008;50.656;7.188;2023-08-21T11:07:15;7.68;;;7.05;;
9938;SDS011;5008;50.656;7.188;2023-08-21T11:09:42;6.47;;;5.88;;
9938;SDS011;5008;50.656;7.188;2023-08-21T11:12:10;7.22;;;6.53;;
9938;SDS011;5008;50.656;7.188;2023-08-21T11:14:39;7.68;;;6.53;;
9938;SDS011;5008;50.656;7.188;2023-08-21T11:17:07;6.72;;;6.20;;
9938;SDS011;5008;50.656;7.188;2023-08-21T11:19:35;7.28;;;6.68;;
9938;SDS011;5008;50.656;7.188;2023-08-21T11:22:03;8.20;;;7.40;;
9938;SDS011;5008;50.656;7.188;2023-08-21T11:24:34;8.27;;;7.53;;
9938;SDS011;5008;50.656;7.188;2023-08-21T11:27:10;8.10;;;7.25;;
9938;SDS011;5008;50.656;7.188;2023-08-21T11:29:39;7.90;;;7.20;;
9938;SDS011;5008;50.656;7.188;2023-08-21T11:32:08;7.25;;;6.65;;
9938;SDS011;5008;50.656;7.188;2023-08-21T11:34:35;6.93;;;6.43;;
9938;SDS011;5008;50.656;7.188;2023-08-21T11:37:03;8.10;;;6.65;;
9938;SDS011;5008;50.656;7.188;2023-08-21T11:39:41;7.60;;;6.90;;
9938;SDS011;5008;50.656;7.188;2023-08-21T11:42:09;7.18;;;6.47;;
9938;SDS011;5008;50.656;7.188;2023-08-21T11:44:43;7.03;;;6.38;;
9938;SDS011;5008;50.656;7.188;2023-08-21T11:47:11;7.47;;;6.88;;
9938;SDS011;5008;50.656;7.188;2023-08-21T11:49:38;7.35;;;6.65;;
9938;SDS011;5008;50.656;7.188;2023-08-21T11:52:07;7.35;;;6.75;;
9938;SDS011;5008;50.656;7.188;2023-08-21T11:54:47;7.50;;;6.88;;
9938;SDS011;5008;50.656;7.188;2023-08-21T11:57:15;8.27;;;6.50;;
9938;SDS011;5008;50.656;7.188;2023-08-21T11:59:48;7.35;;;6.68;;
9938;SDS011;5008;50.656;7.188;2023-08-21T12:02:17;7.05;;;6.35;;
9938;SDS011;5008;50.656;7.188;2023-08-21T12:04:51;7.72;;;7.03;;
9938;SDS011;5008;50.656;7.188;2023-08-21T12:07:18;8.07;;;6.80;;
9938;SDS011;5008;50.656;7.188;2023-08-21T12:09:46;7.88;;;7.18;;
9938;SDS011;5008;50.656;7.188;2023-08-21T12:12:14;8.05;;;7.20;;
9938;SDS011;5008;50.656;7.188;2023-08-21T12:14:40;8.23;;;6.80;;
9938;SDS011;5008;50.656;7.188;2023-08-21T12:17:10;7.30;;;6.70;;
9938;SDS011;5008;50.656;7.188;2023-08-21T12:19:36;7.13;;;6.43;;
9938;SDS011;5008;50.656;7.188;2023-08-21T12:22:03;7.13;;;6.43;;
9938;SDS011;5008;50.656;7.188;2023-08-21T12:24:30;6.45;;;5.90;;
9938;SDS011;5008;50.656;7.188;2023-08-21T12:27:06;6.45;;;5.95;;
9938;SDS011;5008;50.656;7.188;2023-08-21T12:29:33;6.20;;;5.70;;
9938;SDS011;5008;50.656;7.188;2023-08-21T12:32:00;7.07;;;6.10;;
9938;SDS011;5008;50.656;7.188;2023-08-21T12:34:29;7.65;;;6.90;;
9938;SDS011;5008;50.656;7.188;2023-08-21T12:36:55;7.03;;;6.32;;
9938;SDS011;5008;50.656;7.188;2023-08-21T12:39:23;7.38;;;6.78;;
9938;SDS011;5008;50.656;7.188;2023-08-21T12:41:49;6.38;;;5.78;;
9938;SDS011;5008;50.656;7.188;2023-08-21T12:44:16;6.20;;;5.70;;
9938;SDS011;5008;50.656;7.188;2023-08-21T12:46:43;7.65;;;6.65;;
9938;SDS011;5008;50.656;7.188;2023-08-21T12:49:10;8.43;;;6.10;;
9938;SDS011;5008;50.656;7.188;2023-08-21T12:51:38;6.50;;;5.57;;
9938;SDS011;5008;50.656;7.188;2023-08-21T12:54:05;6.47;;;5.70;;
9938;SDS011;5008;50.656;7.188;2023-08-21T12:56:34;6.20;;;5.47;;
9938;SDS011;5008;50.656;7.188;2023-08-21T12:59:00;6.05;;;5.35;;
9938;SDS011;5008;50.656;7.188;2023-08-21T13:01:28;6.07;;;5.57;;
9938;SDS011;5008;50.656;7.188;2023-08-21T13:03:56;6.07;;;5.35;;
9938;SDS011;5008;50.656;7.188;2023-08-21T13:06:23;6.40;;;5.80;;
9938;SDS011;5008;50.656;7.188;2023-08-21T13:08:51;6.63;;;5.95;;
9938;SDS011;5008;50.656;7.188;2023-08-21T13:11:19;6.57;;;5.72;;
9938;SDS011;5008;50.656;7.188;2023-08-21T13:13:46;6.65;;;6.03;;
9938;SDS011;5008;50.656;7.188;2023-08-21T13:16:13;6.35;;;5.75;;
9938;SDS011;5008;50.656;7.188;2023-08-21T13:18:40;6.75;;;5.70;;
9938;SDS011;5008;50.656;7.188;2023-08-21T13:21:07;6.68;;;6.07;;
9938;SDS011;5008;50.656;7.188;2023-08-21T13:23:35;6.28;;;5.68;;
9938;SDS011;5008;50.656;7.188;2023-08-21T13:26:03;6.50;;;5.88;;
9938;SDS011;5008;50.656;7.188;2023-08-21T13:28:30;6.95;;;5.97;;
9938;SDS011;5008;50.656;7.188;2023-08-21T13:30:57;6.05;;;5.40;;
9938;SDS011;5008;50.656;7.188;2023-08-21T13:33:24;6.00;;;5.40;;
9938;SDS011;5008;50.656;7.188;2023-08-21T13:35:51;5.85;;;5.35;;
9938;SDS011;5008;50.656;7.188;2023-08-21T13:38:18;6.38;;;5.78;;
9938;SDS011;5008;50.656;7.188;2023-08-21T13:40:44;6.55;;;5.30;;
9938;SDS011;5008;50.656;7.188;2023-08-21T13:43:13;8.20;;;5.63;;
9938;SDS011;5008;50.656;7.188;2023-08-21T13:45:39;6.38;;;5.43;;
9938;SDS011;5008;50.656;7.188;2023-08-21T13:48:06;5.93;;;5.10;;
9938;SDS011;5008;50.656;7.188;2023-08-21T13:50:33;5.40;;;4.90;;
9938;SDS011;5008;50.656;7.188;2023-08-21T13:53:00;6.47;;;4.75;;
9938;SDS011;5008;50.656;7.188;2023-08-21T13:55:27;6.10;;;4.72;;
9938;SDS011;5008;50.656;7.188;2023-08-21T13:57:53;5.60;;;4.88;;
9938;SDS011;5008;50.656;7.188;2023-08-21T14:03:11;6.38;;;5.80;;
9938;SDS011;5008;50.656;7.188;2023-08-21T14:05:38;6.60;;;5.32;;
9938;SDS011;5008;50.656;7.188;2023-08-21T14:08:05;5.75;;;5.15;;
9938;SDS011;5008;50.656;7.188;2023-08-21T14:10:32;5.97;;;4.97;;
9938;SDS011;5008;50.656;7.188;2023-08-21T14:12:58;5.72;;;4.97;;
9938;SDS011;5008;50.656;7.188;2023-08-21T14:15:28;5.75;;;5.15;;
9938;SDS011;5008;50.656;7.188;2023-08-21T14:17:56;6.30;;;5.15;;
9938;SDS011;5008;50.656;7.188;2023-08-21T14:20:23;6.03;;;4.90;;
9938;SDS011;5008;50.656;7.188;2023-08-21T14:25:47;5.22;;;4.75;;
9938;SDS011;5008;50.656;7.188;2023-08-21T14:28:14;4.68;;;4.28;;
9938;SDS011;5008;50.656;7.188;2023-08-21T14:30:41;4.40;;;3.85;;
9938;SDS011;5008;50.656;7.188;2023-08-21T14:33:09;5.88;;;5.03;;
9938;SDS011;5008;50.656;7.188;2023-08-21T14:35:36;5.63;;;5.13;;
9938;SDS011;5008;50.656;7.188;2023-08-21T14:38:03;4.97;;;4.57;;
9938;SDS011;5008;50.656;7.188;2023-08-21T14:40:32;5.50;;;4.78;;
9938;SDS011;5008;50.656;7.188;2023-08-21T14:43:00;5.50;;;5.10;;
9938;SDS011;5008;50.656;7.188;2023-08-21T14:45:43;6.10;;;5.53;;
9938;SDS011;5008;50.656;7.188;2023-08-21T14:48:26;5.63;;;4.80;;
9938;SDS011;5008;50.656;7.188;2023-08-21T14:50:53;5.68;;;4.70;;
9938;SDS011;5008;50.656;7.188;2023-08-21T14:53:20;5.35;;;4.85;;
9938;SDS011;5008;50.656;7.188;2023-08-21T14:55:46;5.20;;;4.80;;
9938;SDS011;5008;50.656;7.188;2023-08-21T14:58:13;5.68;;;4.97;;
9938;SDS011;5008;50.656;7.188;2023-08-21T15:00:40;5.45;;;5.05;;
9938;SDS011;5008;50.656;7.188;2023-08-21T15:03:07;5.90;;;5.28;;
9938;SDS011;5008;50.656;7.188;2023-08-21T15:05:36;4.85;;;4.45;;
9938;SDS011;5008;50.656;7.188;2023-08-21T15:08:03;4.72;;;4.18;;
9938;SDS011;5008;50.656;7.188;2023-08-21T15:10:29;4.57;;;4.18;;
9938;SDS011;5008;50.656;7.188;2023-08-21T15:12:56;5.00;;;4.40;;
9938;SDS011;5008;50.656;7.188;2023-08-21T15:15:23;4.50;;;4.10;;
9938;SDS011;5008;50.656;7.188;2023-08-21T15:17:50;4.15;;;3.67;;
9938;SDS011;5008;50.656;7.188;2023-08-21T15:20:17;4.95;;;4.38;;
9938;SDS011;5008;50.656;7.188;2023-08-21T15:22:45;4.88;;;4.40;;
9938;SDS011;5008;50.656;7.188;2023-08-21T15:25:12;6.65;;;4.10;;
9938;SDS011;5008;50.656;7.188;2023-08-21T15:27:39;4.72;;;4.10;;
9938;SDS011;5008;50.656;7.188;2023-08-21T15:30:06;4.60;;;4.07;;
9938;SDS011;5008;50.656;7.188;2023-08-21T15:32:34;6.32;;;4.15;;
9938;SDS011;5008;50.656;7.188;2023-08-21T15:35:01;4.82;;;4.40;;
9938;SDS011;5008;50.656;7.188;2023-08-21T15:37:29;4.97;;;4.35;;
9938;SDS011;5008;50.656;7.188;2023-08-21T15:39:57;5.60;;;4.07;;
9938;SDS011;5008;50.656;7.188;2023-08-21T15:42:24;4.28;;;3.67;;
9938;SDS011;5008;50.656;7.188;2023-08-21T15:44:52;5.07;;;3.92;;
9938;SDS011;5008;50.656;7.188;2023-08-21T15:47:19;6.72;;;4.05;;
9938;SDS011;5008;50.656;7.188;2023-08-21T15:49:46;6.80;;;3.70;;
9938;SDS011;5008;50.656;7.188;2023-08-21T15:52:13;8.00;;;3.45;;
9938;SDS011;5008;50.656;7.188;2023-08-21T15:54:40;4.80;;;3.65;;
9938;SDS011;5008;50.656;7.188;2023-08-21T15:57:08;3.90;;;3.60;;
9938;SDS011;5008;50.656;7.188;2023-08-21T15:59:36;3.55;;;3.22;;
9938;SDS011;5008;50.656;7.188;2023-08-21T16:02:04;3.95;;;3.55;;
9938;SDS011;5008;50.656;7.188;2023-08-21T16:04:30;3.47;;;3.28;;
9938;SDS011;5008;50.656;7.188;2023-08-21T16:06:57;4.43;;;3.60;;
9938;SDS011;5008;50.656;7.188;2023-08-21T16:09:24;4.75;;;3.50;;
9938;SDS011;5008;50.656;7.188;2023-08-21T16:11:51;3.63;;;3.28;;
9938;SDS011;5008;50.656;7.188;2023-08-21T16:14:24;3.70;;;3.40;;
9938;SDS011;5008;50.656;7.188;2023-08-21T16:16:50;3.95;;;3.25;;
9938;SDS011;5008;50.656;7.188;2023-08-21T16:19:19;3.30;;;3.00;;
9938;SDS011;5008;50.656;7.188;2023-08-21T16:21:46;3.45;;;3.05;;
9938;SDS011;5008;50.656;7.188;2023-08-21T16:24:14;3.60;;;3.30;;
9938;SDS011;5008;50.656;7.188;2023-08-21T16:26:41;4.97;;;3.97;;
9938;SDS011;5008;50.656;7.188;2023-08-21T16:29:09;6.28;;;3.00;;
9938;SDS011;5008;50.656;7.188;2023-08-21T16:31:37;3.85;;;3.40;;
9938;SDS011;5008;50.656;7.188;2023-08-21T16:34:04;3.80;;;3.42;;
9938;SDS011;5008;50.656;7.188;2023-08-21T16:36:32;3.90;;;3.50;;
9938;SDS011;5008;50.656;7.188;2023-08-21T16:38:59;3.95;;;3.08;;
9938;SDS011;5008;50.656;7.188;2023-08-21T16:41:29;4.70;;;3.75;;
9938;SDS011;5008;50.656;7.188;2023-08-21T16:44:02;3.65;;;3.10;;
9938;SDS011;5008;50.656;7.188;2023-08-21T16:46:29;4.05;;;3.75;;
9938;SDS011;5008;50.656;7.188;2023-08-21T16:48:59;3.70;;;3.40;;
9938;SDS011;5008;50.656;7.188;2023-08-21T16:51:28;3.75;;;3.45;;
9938;SDS011;5008;50.656;7.188;2023-08-21T16:53:55;4.28;;;3.97;;
9938;SDS011;5008;50.656;7.188;2023-08-21T16:56:24;4.32;;;3.70;;
9938;SDS011;5008;50.656;7.188;2023-08-21T16:58:52;3.50;;;3.20;;
9938;SDS011;5008;50.656;7.188;2023-08-21T17:01:19;3.58;;;3.20;;
9938;SDS011;5008;50.656;7.188;2023-08-21T17:03:46;4.20;;;3.83;;
9938;SDS011;5008;50.656;7.188;2023-08-21T17:06:15;4.20;;;3.60;;
9938;SDS011;5008;50.656;7.188;2023-08-21T17:08:41;4.15;;;3.75;;
9938;SDS011;5008;50.656;7.188;2023-08-21T17:11:08;4.85;;;3.15;;
9938;SDS011;5008;50.656;7.188;2023-08-21T17:13:43;3.85;;;3.20;;
9938;SDS011;5008;50.656;7.188;2023-08-21T17:16:14;5.05;;;3.38;;
9938;SDS011;5008;50.656;7.188;2023-08-21T17:18:41;6.00;;;3.10;;
9938;SDS011;5008;50.656;7.188;2023-08-21T17:21:09;5.97;;;3.58;;
9938;SDS011;5008;50.656;7.188;2023-08-21T17:23:39;3.42;;;3.17;;
9938;SDS011;5008;50.656;7.188;2023-08-21T17:26:06;5.13;;;3.30;;
9938;SDS011;5008;50.656;7.188;2023-08-21T17:28:33;3.83;;;2.97;;
9938;SDS011;5008;50.656;7.188;2023-08-21T17:31:00;4.55;;;3.13;;
9938;SDS011;5008;50.656;7.188;2023-08-21T17:33:27;4.75;;;2.85;;
9938;SDS011;5008;50.656;7.188;2023-08-21T17:35:54;6.57;;;3.08;;
9938;SDS011;5008;50.656;7.188;2023-08-21T17:38:21;4.22;;;3.20;;
9938;SDS011;5008;50.656;7.188;2023-08-21T17:40:49;3.10;;;2.83;;
9938;SDS011;5008;50.656;7.188;2023-08-21T17:43:16;3.45;;;2.88;;
9938;SDS011;5008;50.656;7.188;2023-08-21T17:45:43;6.88;;;3.10;;
9938;SDS011;5008;50.656;7.188;2023-08-21T17:48:24;5.30;;;3.03;;
9938;SDS011;5008;50.656;7.188;2023-08-21T17:50:51;3.63;;;2.75;;
9938;SDS011;5008;50.656;7.188;2023-08-21T17:53:21;3.53;;;3.00;;
9938;SDS011;5008;50.656;7.188;2023-08-21T17:55:49;3.90;;;3.25;;
9938;SDS011;5008;50.656;7.188;2023-08-21T18:00:53;3.47;;;3.00;;
9938;SDS011;5008;50.656;7.188;2023-08-21T18:03:20;3.90;;;3.28;;
9938;SDS011;5008;50.656;7.188;2023-08-21T18:05:48;4.90;;;3.35;;
9938;SDS011;5008;50.656;7.188;2023-08-21T18:08:15;5.18;;;3.50;;
9938;SDS011;5008;50.656;7.188;2023-08-21T18:10:41;3.70;;;2.92;;
9938;SDS011;5008;50.656;7.188;2023-08-21T18:13:12;4.15;;;3.60;;
9938;SDS011;5008;50.656;7.188;2023-08-21T18:15:39;4.38;;;3.30;;
9938;SDS011;5008;50.656;7.188;2023-08-21T18:18:06;3.42;;;3.13;;
9938;SDS011;5008;50.656;7.188;2023-08-21T18:20:45;3.30;;;3.00;;
9938;SDS011;5008;50.656;7.188;2023-08-21T18:23:14;4.05;;;3.35;;
9938;SDS011;5008;50.656;7.188;2023-08-21T18:25:42;3.03;;;2.80;;
9938;SDS011;5008;50.656;7.188;2023-08-21T18:28:09;5.60;;;3.17;;
9938;SDS011;5008;50.656;7.188;2023-08-21T18:30:39;4.15;;;3.15;;
9938;SDS011;5008;50.656;7.188;2023-08-21T18:33:07;3.75;;;3.33;;
9938;SDS011;5008;50.656;7.188;2023-08-21T18:35:34;3.47;;;3.17;;
9938;SDS011;5008;50.656;7.188;2023-08-21T18:38:02;4.85;;;3.28;;
9938;SDS011;5008;50.656;7.188;2023-08-21T18:40:29;5.50;;;3.45;;
9938;SDS011;5008;50.656;7.188;2023-08-21T18:42:56;6.70;;;3.42;;
9938;SDS011;5008;50.656;7.188;2023-08-21T18:45:42;4.10;;;3.05;;
9938;SDS011;5008;50.656;7.188;2023-08-21T18:48:09;3.90;;;3.17;;
9938;SDS011;5008;50.656;7.188;2023-08-21T18:50:37;4.40;;;3.25;;
9938;SDS011;5008;50.656;7.188;2023-08-21T18:53:06;4.55;;;3.30;;
9938;SDS011;5008;50.656;7.188;2023-08-21T18:55:34;5.03;;;3.45;;
9938;SDS011;5008;50.656;7.188;2023-08-21T18:58:02;3.10;;;2.80;;
9938;SDS011;5008;50.656;7.188;2023-08-21T19:00:29;4.03;;;2.88;;
9938;SDS011;5008;50.656;7.188;2023-08-21T19:02:58;4.00;;;3.28;;
9938;SDS011;5008;50.656;7.188;2023-08-21T19:05:25;3.38;;;3.08;;
9938;SDS011;5008;50.656;7.188;2023-08-21T19:07:52;4.13;;;3.15;;
9938;SDS011;5008;50.656;7.188;2023-08-21T19:10:19;4.78;;;3.40;;
9938;SDS011;5008;50.656;7.188;2023-08-21T19:12:48;3.40;;;3.10;;
9938;SDS011;5008;50.656;7.188;2023-08-21T19:15:15;4.32;;;3.30;;
9938;SDS011;5008;50.656;7.188;2023-08-21T19:17:42;3.92;;;3.22;;
9938;SDS011;5008;50.656;7.188;2023-08-21T19:20:10;5.55;;;3.10;;
9938;SDS011;5008;50.656;7.188;2023-08-21T19:22:38;3.33;;;3.03;;
9938;SDS011;5008;50.656;7.188;2023-08-21T19:25:06;3.50;;;3.20;;
9938;SDS011;5008;50.656;7.188;2023-08-21T19:27:33;6.68;;;5.97;;
9938;SDS011;5008;50.656;7.188;2023-08-21T19:30:00;3.88;;;3.55;;
9938;SDS011;5008;50.656;7.188;2023-08-21T19:32:30;4.75;;;2.92;;
9938;SDS011;5008;50.656;7.188;2023-08-21T19:34:57;4.40;;;3.53;;
9938;SDS011;5008;50.656;7.188;2023-08-21T19:37:25;4.03;;;3.00;;